Time;durP1;ratioP1;P1;durP2;ratioP2;P2;SDS_P1;SDS_P2;PMS_P1;PMS_P2;Temp;Humidity;BMP_temperature;BMP_pressure;BME280_temperature;BME280_humidity;BME280_pressure;Samples;Min_cycle;Max_cycle;Signal;HPM_P1;HPM_P2
2024/03/31 00:00:22;;;;;;;69.43;33.58;;;;;;;10.15;100.00;99313.00;4992856;28;20420;-82
2024/03/31 00:02:51;;;;;;;67.60;33.03;;;;;;;10.16;100.00;99312.72;4971891;28;20437;-83
2024/03/31 00:05:19;;;;;;;64.65;30.90;;;;;;;10.23;100.00;99314.16;4991704;28;20436;-82
2024/03/31 00:07:45;;;;;;;60.63;29.88;;;;;;;10.26;100.00;99316.25;4994982;28;20421;-82
2024/03/31 00:10:12;;;;;;;60.95;28.67;;;;;;;10.36;100.00;99319.56;4977797;28;20433;-82
2024/03/31 00:12:43;;;;;;;58.05;26.67;;;;;;;10.45;100.00;99326.94;4979005;28;20429;-82
2024/03/31 00:15:10;;;;;;;54.30;25.55;;;;;;;10.58;100.00;99317.91;4979046;28;20777;-83
2024/03/31 00:17:38;;;;;;;52.90;25.63;;;;;;;10.57;100.00;99329.91;4994263;28;20450;-83
2024/03/31 00:20:06;;;;;;;53.28;25.67;;;;;;;10.60;100.00;99323.03;4991620;28;20884;-82
2024/03/31 00:22:33;;;;;;;50.70;24.83;;;;;;;10.56;100.00;99331.00;4993836;28;20435;-83
2024/03/31 00:25:00;;;;;;;57.00;25.75;;;;;;;10.50;100.00;99327.63;4991763;28;20430;-81
2024/03/31 00:27:27;;;;;;;54.30;24.85;;;;;;;10.49;100.00;99330.66;4990886;28;20421;-82
2024/03/31 00:29:55;;;;;;;53.40;25.23;;;;;;;10.45;100.00;99316.06;4981778;28;20434;-82
2024/03/31 00:32:22;;;;;;;54.78;24.98;;;;;;;10.43;100.00;99321.84;4978783;28;20413;-82
2024/03/31 00:34:51;;;;;;;54.58;25.27;;;;;;;10.36;100.00;99313.31;4977455;28;20417;-82
2024/03/31 00:37:17;;;;;;;56.33;25.08;;;;;;;10.32;100.00;99309.59;4979152;28;20886;-82
2024/03/31 00:39:45;;;;;;;52.47;24.57;;;;;;;10.24;100.00;99313.84;4977732;28;21007;-83
2024/03/31 00:42:11;;;;;;;52.28;24.58;;;;;;;10.18;100.00;99309.69;4973164;28;20874;-82
2024/03/31 00:44:39;;;;;;;54.03;24.55;;;;;;;10.16;100.00;99311.88;4986579;28;20430;-83
2024/03/31 00:47:05;;;;;;;51.50;25.08;;;;;;;10.09;100.00;99306.88;4995162;28;20428;-83
2024/03/31 00:49:33;;;;;;;55.38;24.52;;;;;;;9.99;100.00;99301.72;4977335;28;20496;-83
2024/03/31 00:52:01;;;;;;;54.10;25.20;;;;;;;9.99;100.00;99299.78;4977864;28;20424;-82
2024/03/31 00:54:31;;;;;;;54.53;24.25;;;;;;;9.99;100.00;99299.00;4966325;28;20416;-84
2024/03/31 00:56:58;;;;;;;47.50;24.40;;;;;;;9.97;100.00;99301.19;4976504;28;20413;-83
2024/03/31 00:59:26;;;;;;;48.33;23.77;;;;;;;9.93;100.00;99295.59;4977645;28;20428;-83
2024/03/31 01:01:52;;;;;;;49.05;24.20;;;;;;;9.86;100.00;99297.97;4977838;28;20424;-82
2024/03/31 01:04:19;;;;;;;48.90;24.83;;;;;;;9.91;100.00;99297.81;4990722;28;20413;-82
2024/03/31 01:06:46;;;;;;;52.50;25.30;;;;;;;9.90;100.00;99293.47;4969705;28;21115;-82
2024/03/31 01:09:16;;;;;;;52.80;25.25;;;;;;;9.84;100.00;99306.41;4992962;28;20425;-83
2024/03/31 01:11:42;;;;;;;50.67;25.47;;;;;;;9.90;100.00;99306.28;4972443;28;20431;-82
2024/03/31 01:14:11;;;;;;;46.25;24.05;;;;;;;9.80;100.00;99304.59;4993085;28;20420;-83
2024/03/31 01:16:39;;;;;;;52.63;25.40;;;;;;;9.71;100.00;99304.56;4990706;28;20420;-83
2024/03/31 01:19:06;;;;;;;47.63;25.02;;;;;;;9.68;100.00;99316.84;4971755;28;20421;-82
2024/03/31 01:21:34;;;;;;;53.83;26.83;;;;;;;9.62;100.00;99317.25;4977481;28;20429;-85
2024/03/31 01:24:04;;;;;;;53.80;26.60;;;;;;;9.62;100.00;99315.34;4976645;28;20429;-85
2024/03/31 01:26:30;;;;;;;57.30;26.58;;;;;;;9.63;100.00;99311.50;4977152;28;20451;-82
2024/03/31 01:28:57;;;;;;;56.15;28.20;;;;;;;9.58;100.00;99321.69;4975873;28;20431;-83
2024/03/31 01:31:24;;;;;;;49.90;25.80;;;;;;;9.59;100.00;99317.88;4977449;28;20429;-83
2024/03/31 01:33:52;;;;;;;46.55;25.75;;;;;;;9.53;100.00;99319.91;4974145;28;20434;-82
2024/03/31 01:36:18;;;;;;;48.50;26.45;;;;;;;9.52;100.00;99329.16;4993127;28;20475;-82
2024/03/31 01:38:46;;;;;;;53.97;27.80;;;;;;;9.49;100.00;99319.69;4989833;28;20446;-82
2024/03/31 01:41:13;;;;;;;54.88;27.25;;;;;;;9.52;100.00;99319.09;4986541;28;20425;-83
2024/03/31 01:43:41;;;;;;;49.20;27.75;;;;;;;9.43;100.00;99320.13;4976511;28;20793;-83
2024/03/31 01:46:08;;;;;;;49.63;26.80;;;;;;;9.43;100.00;99331.81;4977413;28;20437;-83
2024/03/31 01:48:36;;;;;;;53.95;27.65;;;;;;;9.48;100.00;99328.94;4973659;28;20428;-82
2024/03/31 01:51:02;;;;;;;47.25;27.30;;;;;;;9.47;100.00;99330.09;4974179;28;20891;-82
2024/03/31 01:53:30;;;;;;;51.83;27.65;;;;;;;9.48;100.00;99331.66;4992950;28;20420;-82
2024/03/31 01:55:58;;;;;;;52.40;28.33;;;;;;;9.48;100.00;99337.09;4960254;28;23191;-84
2024/03/31 01:58:27;;;;;;;49.63;28.60;;;;;;;9.46;100.00;99322.22;4976517;28;20429;-82
2024/03/31 02:00:54;;;;;;;50.17;27.75;;;;;;;9.36;100.00;99329.50;4970391;28;20900;-82
2024/03/31 02:03:21;;;;;;;43.33;24.88;;;;;;;9.32;100.00;99333.09;4975523;28;20430;-81
2024/03/31 02:05:47;;;;;;;40.42;24.33;;;;;;;9.33;100.00;99330.09;4976754;28;20409;-82
2024/03/31 02:08:15;;;;;;;44.92;24.02;;;;;;;9.25;100.00;99322.66;4970886;28;20422;-82
2024/03/31 02:10:41;;;;;;;45.03;24.50;;;;;;;9.24;100.00;99321.06;4976251;28;20901;-82
2024/03/31 02:13:09;;;;;;;43.25;23.65;;;;;;;9.21;100.00;99324.41;4976364;28;20420;-84
2024/03/31 02:15:37;;;;;;;42.55;24.10;;;;;;;9.28;100.00;99323.97;4967376;28;20422;-82
2024/03/31 02:18:05;;;;;;;40.75;23.13;;;;;;;9.27;100.00;99314.22;4981915;28;20431;-82
2024/03/31 02:20:31;;;;;;;39.53;22.77;;;;;;;9.30;100.00;99313.63;4991724;28;20428;-82
2024/03/31 02:22:59;;;;;;;41.33;22.43;;;;;;;9.13;100.00;99323.19;4976517;28;20424;-81
2024/03/31 02:25:25;;;;;;;42.90;23.73;;;;;;;9.10;100.00;99321.09;4973605;28;20416;-83
2024/03/31 02:27:53;;;;;;;42.42;23.52;;;;;;;9.03;100.00;99317.97;4991111;28;20452;-81
2024/03/31 02:30:20;;;;;;;39.17;23.13;;;;;;;8.94;100.00;99330.66;4979664;28;20782;-83
2024/03/31 02:32:49;;;;;;;39.90;23.63;;;;;;;8.99;100.00;99322.38;4976393;28;20420;-83
2024/03/31 02:35:16;;;;;;;40.47;22.90;;;;;;;8.90;100.00;99310.66;4991507;28;20425;-82
2024/03/31 02:37:44;;;;;;;45.88;23.17;;;;;;;8.97;100.00;99313.75;4971088;28;20425;-82
2024/03/31 02:40:11;;;;;;;38.20;22.73;;;;;;;8.94;100.00;99322.50;4984730;28;20905;-84
2024/03/31 02:42:39;;;;;;;39.47;22.98;;;;;;;8.87;100.00;99331.03;4976165;28;20421;-84
2024/03/31 02:45:06;;;;;;;38.40;23.48;;;;;;;8.81;100.00;99322.22;4979651;28;21018;-82
2024/03/31 02:47:34;;;;;;;38.47;22.77;;;;;;;8.78;100.00;99327.41;4987100;28;20428;-82
2024/03/31 02:50:05;;;;;;;35.75;22.48;;;;;;;8.77;100.00;99331.22;4986855;28;20420;-82
2024/03/31 02:52:33;;;;;;;37.78;21.90;;;;;;;8.77;100.00;99320.38;4970722;28;20437;-82
2024/03/31 02:54:59;;;;;;;38.58;21.60;;;;;;;8.79;100.00;99318.97;4974474;28;20422;-83
2024/03/31 02:57:27;;;;;;;35.67;20.98;;;;;;;8.68;100.00;99323.00;4982532;28;20431;-82
2024/03/31 02:59:53;;;;;;;32.90;20.70;;;;;;;8.84;100.00;99326.22;4972793;28;20432;-82
2024/03/31 03:02:20;;;;;;;34.37;20.57;;;;;;;8.81;100.00;99316.78;4976365;28;20559;-81
2024/03/31 03:04:48;;;;;;;33.35;19.15;;;;;;;8.78;100.00;99320.09;4991595;28;20742;-82
2024/03/31 03:07:17;;;;;;;36.08;19.23;;;;;;;8.65;100.00;99321.69;4975015;28;20440;-83
2024/03/31 03:09:44;;;;;;;32.00;19.20;;;;;;;8.63;100.00;99321.19;4991693;28;20845;-82
2024/03/31 03:12:13;;;;;;;31.40;18.90;;;;;;;8.65;100.00;99337.16;4976443;28;20493;-81
2024/03/31 03:14:39;;;;;;;30.27;19.05;;;;;;;8.65;100.00;99337.16;4990461;28;20417;-83
2024/03/31 03:17:07;;;;;;;31.75;19.17;;;;;;;8.51;100.00;99337.94;4976209;28;20424;-83
2024/03/31 03:19:34;;;;;;;30.67;18.67;;;;;;;8.47;100.00;99341.56;4975531;28;20420;-83
2024/03/31 03:22:01;;;;;;;29.05;18.48;;;;;;;8.43;100.00;99348.66;4975303;28;20420;-82
2024/03/31 03:24:29;;;;;;;30.33;18.58;;;;;;;8.39;100.00;99337.59;4975317;28;20425;-82
2024/03/31 03:26:56;;;;;;;29.40;17.70;;;;;;;8.48;100.00;99338.53;4992371;28;20428;-82
2024/03/31 03:29:23;;;;;;;26.75;17.27;;;;;;;8.45;100.00;99330.19;4991275;28;20424;-82
2024/03/31 03:31:50;;;;;;;28.05;16.85;;;;;;;8.41;100.00;99332.69;4972084;28;20424;-82
2024/03/31 03:34:17;;;;;;;26.40;17.50;;;;;;;8.35;100.00;99325.72;4984122;28;20421;-81
2024/03/31 03:36:45;;;;;;;30.23;17.63;;;;;;;8.31;100.00;99328.25;4980354;28;20417;-81
2024/03/31 03:39:12;;;;;;;28.13;17.27;;;;;;;8.36;100.00;99327.34;4972361;28;20414;-81
2024/03/31 03:41:41;;;;;;;28.97;17.10;;;;;;;8.42;100.00;99336.97;4975400;28;20504;-82
2024/03/31 03:44:10;;;;;;;28.20;17.40;;;;;;;8.34;100.00;99335.78;4993987;28;20420;-81
2024/03/31 03:46:37;;;;;;;29.40;18.38;;;;;;;8.21;100.00;99341.16;4979745;28;20428;-82
2024/03/31 03:49:05;;;;;;;33.93;19.07;;;;;;;8.28;100.00;99341.59;4990470;28;20416;-82
2024/03/31 03:51:32;;;;;;;27.38;17.40;;;;;;;8.31;100.00;99328.25;4974211;28;20430;-81
2024/03/31 03:53:59;;;;;;;27.60;18.13;;;;;;;8.22;100.00;99321.91;4995480;28;20428;-81
2024/03/31 03:56:26;;;;;;;30.07;18.30;;;;;;;8.22;100.00;99318.41;4988721;28;20496;-81
2024/03/31 03:58:55;;;;;;;28.30;17.17;;;;;;;8.19;100.00;99325.22;4989994;28;20423;-81
2024/03/31 04:01:21;;;;;;;31.00;17.70;;;;;;;8.16;100.00;99310.34;4994529;28;20425;-80
2024/03/31 04:03:49;;;;;;;27.55;17.50;;;;;;;8.15;100.00;99322.28;4995440;28;20417;-82
2024/03/31 04:06:15;;;;;;;28.33;17.58;;;;;;;8.16;100.00;99323.88;4995592;28;20424;-83
2024/03/31 04:08:43;;;;;;;31.02;18.77;;;;;;;8.18;100.00;99324.38;4984513;28;20436;-81
2024/03/31 04:11:09;;;;;;;29.02;17.65;;;;;;;8.11;100.00;99325.88;4978407;28;21006;-82
2024/03/31 04:13:37;;;;;;;28.73;17.75;;;;;;;8.15;100.00;99325.00;4977505;28;20426;-82
2024/03/31 04:16:05;;;;;;;29.37;17.67;;;;;;;8.13;100.00;99326.38;4988130;28;20499;-83
2024/03/31 04:18:37;;;;;;;28.63;17.52;;;;;;;8.11;100.00;99321.25;4976701;28;20883;-81
2024/03/31 04:21:07;;;;;;;29.45;16.58;;;;;;;8.13;100.00;99329.91;4986694;28;20755;-81
2024/03/31 04:23:34;;;;;;;28.77;18.13;;;;;;;8.04;100.00;99328.97;4978399;28;20432;-82
2024/03/31 04:26:01;;;;;;;28.27;17.45;;;;;;;8.00;100.00;99333.38;4968497;28;20807;-81
2024/03/31 04:28:28;;;;;;;27.25;17.58;;;;;;;8.04;100.00;99334.38;4970123;28;20429;-81
2024/03/31 04:30:55;;;;;;;31.23;18.58;;;;;;;7.95;100.00;99345.06;4978778;28;20428;-82
2024/03/31 04:33:24;;;;;;;30.50;18.80;;;;;;;7.82;100.00;99337.72;4994570;28;20767;-81
2024/03/31 04:35:50;;;;;;;32.92;19.48;;;;;;;7.76;100.00;99347.81;4994234;28;20425;-82
2024/03/31 04:38:18;;;;;;;30.63;19.88;;;;;;;7.76;100.00;99341.59;4966426;28;20899;-82
2024/03/31 04:40:53;;;;;;;31.20;18.43;;;;;;;7.66;100.00;99339.84;4977433;28;20401;-81
2024/03/31 04:43:20;;;;;;;31.25;18.55;;;;;;;7.73;100.00;99350.31;4977144;28;20435;-83
2024/03/31 04:45:47;;;;;;;31.98;18.55;;;;;;;7.69;100.00;99369.03;4973227;28;20440;-82
2024/03/31 04:48:14;;;;;;;29.23;17.23;;;;;;;7.68;100.00;99366.63;4993577;28;20420;-81
2024/03/31 04:50:42;;;;;;;30.10;17.67;;;;;;;7.64;100.00;99367.22;4983424;28;20434;-81
2024/03/31 04:53:09;;;;;;;31.10;17.35;;;;;;;7.73;100.00;99370.06;4978261;28;20429;-82
2024/03/31 04:55:36;;;;;;;28.15;16.35;;;;;;;7.80;100.00;99372.41;4993226;28;20433;-81
2024/03/31 04:58:04;;;;;;;27.65;15.43;;;;;;;7.66;100.00;99377.75;4967809;28;20406;-82
2024/03/31 05:00:31;;;;;;;29.48;16.63;;;;;;;7.66;100.00;99375.03;4975174;28;21418;-82
2024/03/31 05:02:58;;;;;;;28.98;16.35;;;;;;;7.61;100.00;99381.34;4973680;28;20440;-82
2024/03/31 05:05:25;;;;;;;27.40;15.70;;;;;;;7.62;100.00;99380.25;4972451;28;20452;-81
2024/03/31 05:07:54;;;;;;;29.25;15.98;;;;;;;7.53;100.00;99387.41;4977160;28;20425;-82
2024/03/31 05:10:20;;;;;;;26.13;15.48;;;;;;;7.64;100.00;99391.56;4992755;28;20769;-82
2024/03/31 05:12:48;;;;;;;25.42;15.52;;;;;;;7.47;100.00;99399.38;4977116;28;20793;-81
2024/03/31 05:15:14;;;;;;;28.38;15.95;;;;;;;7.42;100.00;99402.97;4985307;28;20412;-82
2024/03/31 05:17:42;;;;;;;28.30;14.80;;;;;;;7.32;100.00;99400.41;4993149;28;20423;-82
2024/03/31 05:20:09;;;;;;;26.15;14.75;;;;;;;7.28;100.00;99399.38;4975248;28;20422;-81
2024/03/31 05:22:37;;;;;;;27.42;14.90;;;;;;;7.19;100.00;99404.59;4992654;28;20476;-81
2024/03/31 05:25:06;;;;;;;26.45;14.30;;;;;;;7.20;100.00;99400.00;4976268;28;20960;-82
2024/03/31 05:27:33;;;;;;;25.17;13.80;;;;;;;7.20;100.00;99403.50;4976261;28;20433;-82
2024/03/31 05:30:00;;;;;;;26.25;14.13;;;;;;;7.21;100.00;99405.13;4977190;28;20413;-81
2024/03/31 05:32:27;;;;;;;25.17;13.60;;;;;;;7.13;100.00;99395.72;4982850;28;20437;-81
2024/03/31 05:35:09;;;;;;;26.93;13.53;;;;;;;7.08;100.00;99403.91;4977374;28;20492;-82
2024/03/31 05:37:36;;;;;;;31.45;14.55;;;;;;;7.24;100.00;99404.53;4975439;28;20428;-81
2024/03/31 05:40:05;;;;;;;26.98;13.43;;;;;;;7.20;100.00;99410.84;4971199;28;20404;-81
2024/03/31 05:42:33;;;;;;;27.10;14.02;;;;;;;7.29;100.00;99422.59;4988626;28;20422;-81
2024/03/31 05:45:00;;;;;;;26.42;13.77;;;;;;;7.32;100.00;99419.34;4989767;28;20414;-82
2024/03/31 05:47:27;;;;;;;28.17;14.35;;;;;;;7.26;100.00;99410.47;4974249;28;20768;-81
2024/03/31 05:49:54;;;;;;;28.30;15.33;;;;;;;7.23;100.00;99407.53;4975935;28;20412;-80
2024/03/31 05:52:21;;;;;;;27.27;14.95;;;;;;;7.14;100.00;99405.47;4989963;28;20423;-81
2024/03/31 05:54:49;;;;;;;28.55;15.20;;;;;;;7.09;100.00;99410.94;4991745;28;20800;-82
2024/03/31 05:57:19;;;;;;;32.30;15.48;;;;;;;7.13;100.00;99409.25;4977413;28;21057;-81
2024/03/31 05:59:46;;;;;;;30.23;15.35;;;;;;;7.15;100.00;99417.09;4991662;28;20438;-83
2024/03/31 06:02:15;;;;;;;29.20;15.13;;;;;;;7.10;100.00;99415.25;4978612;28;20449;-83
2024/03/31 06:04:42;;;;;;;28.17;14.30;;;;;;;7.13;100.00;99416.59;4989818;28;20401;-81
2024/03/31 06:07:10;;;;;;;29.63;15.93;;;;;;;7.24;100.00;99409.16;4973128;28;20444;-80
2024/03/31 06:09:36;;;;;;;29.35;13.98;;;;;;;7.30;100.00;99411.50;4988934;28;20432;-81
2024/03/31 06:12:05;;;;;;;29.25;14.90;;;;;;;7.32;100.00;99414.72;4973405;28;20432;-81
2024/03/31 06:14:33;;;;;;;28.83;15.70;;;;;;;7.27;100.00;99422.09;4987753;28;20414;-82
2024/03/31 06:17:01;;;;;;;28.88;14.77;;;;;;;7.24;100.00;99425.41;4975939;28;20425;-81
2024/03/31 06:19:27;;;;;;;27.85;15.05;;;;;;;7.24;100.00;99414.56;4975607;28;20777;-81
2024/03/31 06:21:55;;;;;;;29.40;15.02;;;;;;;7.22;100.00;99409.44;4975443;28;20424;-81
2024/03/31 06:24:21;;;;;;;29.65;15.02;;;;;;;7.11;100.00;99406.06;4971460;28;20797;-81
2024/03/31 06:26:49;;;;;;;31.25;15.32;;;;;;;7.14;100.00;99410.09;4984330;28;20909;-81
2024/03/31 06:29:15;;;;;;;30.23;15.13;;;;;;;7.29;100.00;99406.38;4975783;28;20482;-81
2024/03/31 06:31:44;;;;;;;28.38;15.18;;;;;;;7.18;100.00;99419.25;4973718;28;20888;-80
2024/03/31 06:34:11;;;;;;;31.17;15.68;;;;;;;7.12;100.00;99415.75;4991222;28;20429;-82
2024/03/31 06:36:38;;;;;;;31.45;15.23;;;;;;;7.12;100.00;99412.25;4981950;28;20432;-81
2024/03/31 06:39:05;;;;;;;31.60;15.07;;;;;;;7.29;100.00;99411.78;4992456;28;20417;-81
2024/03/31 06:41:32;;;;;;;34.13;15.32;;;;;;;7.24;100.00;99407.25;4988848;28;20795;-81
2024/03/31 06:43:59;;;;;;;28.27;15.13;;;;;;;7.42;100.00;99419.22;4975751;28;20412;-81
2024/03/31 06:46:26;;;;;;;28.40;14.15;;;;;;;7.42;100.00;99421.91;4974957;28;20429;-82
2024/03/31 06:48:54;;;;;;;31.47;14.57;;;;;;;7.39;100.00;99410.84;4986141;28;20435;-80
2024/03/31 06:51:23;;;;;;;28.48;14.85;;;;;;;7.54;100.00;99413.38;4975353;28;20777;-82
2024/03/31 06:53:50;;;;;;;29.77;15.25;;;;;;;7.51;100.00;99427.47;4972389;28;20427;-78
2024/03/31 06:56:19;;;;;;;31.20;14.95;;;;;;;7.55;100.00;99414.19;4974130;28;20435;-79
2024/03/31 06:58:45;;;;;;;31.70;14.57;;;;;;;7.58;100.00;99427.97;4973714;28;20528;-79
2024/03/31 07:01:13;;;;;;;28.85;14.45;;;;;;;7.59;100.00;99421.41;4980838;28;20770;-78
2024/03/31 07:03:39;;;;;;;28.58;14.25;;;;;;;7.49;100.00;99425.06;4967319;28;20425;-78
2024/03/31 07:06:08;;;;;;;26.77;13.15;;;;;;;7.56;100.00;99413.88;4969110;28;20838;-81
2024/03/31 07:08:39;;;;;;;29.13;13.93;;;;;;;7.59;100.00;99415.22;4991150;28;20433;-80
2024/03/31 07:11:06;;;;;;;30.90;14.30;;;;;;;7.63;100.00;99417.03;4982721;28;20462;-78
2024/03/31 07:13:33;;;;;;;29.42;14.82;;;;;;;7.55;100.00;99428.50;5005675;28;21320;-81
2024/03/31 07:16:01;;;;;;;30.27;14.57;;;;;;;7.55;100.00;99420.38;4978538;28;20429;-80
2024/03/31 07:18:27;;;;;;;28.85;14.45;;;;;;;7.72;100.00;99428.03;4993340;28;21045;-79
2024/03/31 07:20:55;;;;;;;28.38;14.40;;;;;;;7.62;100.00;99420.88;4979215;28;20443;-78
2024/03/31 07:23:25;;;;;;;29.20;14.75;;;;;;;7.60;100.00;99417.63;4994498;28;20432;-78
2024/03/31 07:25:54;;;;;;;29.63;14.32;;;;;;;7.64;100.00;99415.94;4978664;28;20428;-79
2024/03/31 07:28:21;;;;;;;28.80;13.80;;;;;;;7.73;100.00;99423.41;4992792;28;21130;-79
2024/03/31 07:30:48;;;;;;;29.20;14.18;;;;;;;7.87;100.00;99420.78;4992401;28;20789;-79
2024/03/31 07:33:15;;;;;;;26.92;13.93;;;;;;;7.81;100.00;99412.72;4974314;28;20432;-79
2024/03/31 07:35:42;;;;;;;30.07;14.77;;;;;;;7.93;100.00;99416.94;4977261;28;20414;-79
2024/03/31 07:38:09;;;;;;;24.85;13.55;;;;;;;7.88;100.00;99425.13;4993846;28;20428;-80
2024/03/31 07:40:38;;;;;;;29.05;14.27;;;;;;;7.85;100.00;99425.72;4978600;28;20836;-78
2024/03/31 07:43:04;;;;;;;31.63;13.75;;;;;;;7.89;100.00;99410.47;4988686;28;20416;-79
2024/03/31 07:45:32;;;;;;;31.53;14.90;;;;;;;7.92;100.00;99415.31;4992212;28;20993;-79
2024/03/31 07:47:58;;;;;;;28.40;14.23;;;;;;;7.79;100.00;99406.03;4973815;28;20965;-79
2024/03/31 07:50:26;;;;;;;27.45;13.52;;;;;;;7.71;100.00;99395.84;4991233;28;20438;-78
2024/03/31 07:52:52;;;;;;;30.52;14.80;;;;;;;7.71;100.00;99388.50;4992169;28;20428;-79
2024/03/31 07:55:20;;;;;;;30.45;14.90;;;;;;;7.70;100.00;99377.97;4977020;28;20425;-79
2024/03/31 07:57:48;;;;;;;30.67;15.15;;;;;;;7.58;100.00;99365.69;4993350;28;20419;-79
2024/03/31 08:00:15;;;;;;;31.08;15.15;;;;;;;7.55;100.00;99333.75;4988043;28;20421;-77
2024/03/31 08:02:42;;;;;;;32.25;15.55;;;;;;;7.59;100.00;99320.44;4991814;28;20789;-78
2024/03/31 08:05:09;;;;;;;30.40;15.50;;;;;;;7.64;100.00;99310.34;4967063;28;20431;-79
2024/03/31 08:07:36;;;;;;;33.40;15.73;;;;;;;7.68;100.00;99309.75;4989197;28;20443;-78
2024/03/31 08:10:03;;;;;;;36.10;17.45;;;;;;;7.88;100.00;99319.47;4992549;28;20448;-78
2024/03/31 08:12:30;;;;;;;33.90;16.08;;;;;;;7.71;100.00;99303.78;4973549;28;20540;-79
2024/03/31 08:14:59;;;;;;;33.33;16.42;;;;;;;7.69;100.00;99295.13;4974201;28;20455;-80
2024/03/31 08:17:25;;;;;;;35.47;16.25;;;;;;;7.85;100.00;99298.41;4986945;28;20451;-80
2024/03/31 08:19:53;;;;;;;34.45;17.02;;;;;;;7.65;100.00;99320.09;4987568;28;20429;-79
2024/03/31 08:22:19;;;;;;;39.83;18.92;;;;;;;7.78;100.00;99340.19;4972114;28;20471;-79
2024/03/31 08:24:47;;;;;;;33.43;16.17;;;;;;;7.82;100.00;99368.31;4974171;28;20770;-80
2024/03/31 08:27:15;;;;;;;33.75;15.68;;;;;;;7.97;100.00;99402.50;4992815;28;20460;-79
2024/03/31 08:29:42;;;;;;;32.33;15.38;;;;;;;8.09;100.00;99431.03;4988009;28;20438;-81
2024/03/31 08:32:10;;;;;;;32.30;16.05;;;;;;;8.13;100.00;99430.19;4973739;28;20429;-79
2024/03/31 08:34:37;;;;;;;33.92;16.27;;;;;;;8.21;100.00;99409.72;4991063;28;20424;-79
2024/03/31 08:37:04;;;;;;;34.05;15.98;;;;;;;8.13;100.00;99403.06;4987943;28;20525;-80
2024/03/31 08:39:31;;;;;;;38.95;20.70;;;;;;;8.16;100.00;99401.66;4986231;28;20436;-79
2024/03/31 08:42:00;;;;;;;70.65;37.10;;;;;;;8.11;100.00;99396.34;4984101;28;20436;-80
2024/03/31 08:44:29;;;;;;;35.00;17.92;;;;;;;8.34;100.00;99392.69;4990364;28;20436;-79
2024/03/31 08:46:56;;;;;;;29.23;15.15;;;;;;;8.46;100.00;99392.25;4985799;28;20433;-79
2024/03/31 08:49:25;;;;;;;36.10;17.35;;;;;;;8.12;100.00;99395.22;4989692;28;20428;-79
2024/03/31 08:51:52;;;;;;;35.58;18.52;;;;;;;8.27;100.00;99400.41;4988519;28;20438;-82
2024/03/31 08:54:19;;;;;;;32.85;16.38;;;;;;;8.23;100.00;99404.81;4973551;28;20808;-79
2024/03/31 08:56:46;;;;;;;35.08;15.82;;;;;;;8.23;100.00;99396.69;4984498;28;20446;-79
2024/03/31 08:59:13;;;;;;;36.20;17.58;;;;;;;8.24;100.00;99403.69;4989803;28;20449;-79
2024/03/31 09:01:41;;;;;;;37.58;19.27;;;;;;;8.46;100.00;99426.69;4989001;28;20443;-78
2024/03/31 09:04:08;;;;;;;33.38;16.10;;;;;;;8.65;100.00;99449.16;4982784;28;20436;-79
2024/03/31 09:06:37;;;;;;;32.67;16.30;;;;;;;8.76;100.00;99446.28;4991102;28;20437;-79
2024/03/31 09:09:04;;;;;;;27.83;15.07;;;;;;;8.91;100.00;99440.56;4984538;28;20432;-79
2024/03/31 09:11:32;;;;;;;31.48;15.80;;;;;;;8.99;100.00;99442.59;4984505;28;20424;-78
2024/03/31 09:13:59;;;;;;;36.05;19.05;;;;;;;8.82;100.00;99445.91;4965334;28;21040;-80
2024/03/31 09:16:26;;;;;;;32.83;16.52;;;;;;;8.72;100.00;99431.72;4971450;28;20433;-80
2024/03/31 09:18:53;;;;;;;36.50;19.10;;;;;;;8.70;100.00;99426.59;4984338;28;20937;-80
2024/03/31 09:21:20;;;;;;;28.40;15.02;;;;;;;8.75;100.00;99415.63;4972897;28;20442;-80
2024/03/31 09:23:48;;;;;;;28.37;15.17;;;;;;;8.82;100.00;99416.06;4973099;28;20440;-81
2024/03/31 09:26:15;;;;;;;32.13;17.83;;;;;;;8.74;100.00;99429.47;4973080;28;20436;-78
2024/03/31 09:28:43;;;;;;;32.45;16.10;;;;;;;8.91;100.00;99454.16;4982297;28;20438;-80
2024/03/31 09:31:11;;;;;;;30.52;16.13;;;;;;;9.08;100.00;99458.19;4966778;28;20437;-79
2024/03/31 09:33:38;;;;;;;29.85;15.10;;;;;;;9.22;100.00;99450.06;4986175;28;20740;-79
2024/03/31 09:36:08;;;;;;;29.35;15.02;;;;;;;9.22;100.00;99450.06;4969249;28;20433;-80
2024/03/31 09:38:34;;;;;;;30.63;15.00;;;;;;;9.35;100.00;99443.84;4973446;28;20448;-79
2024/03/31 09:41:03;;;;;;;28.37;15.00;;;;;;;9.49;100.00;99446.53;4983676;28;20421;-82
2024/03/31 09:43:30;;;;;;;28.75;15.77;;;;;;;9.33;100.00;99448.75;4965527;28;20438;-80
2024/03/31 09:45:57;;;;;;;29.17;15.33;;;;;;;9.36;100.00;99440.81;4988218;28;20435;-80
2024/03/31 09:48:25;;;;;;;28.98;15.15;;;;;;;9.41;100.00;99448.03;4989152;28;21122;-79
2024/03/31 09:50:59;;;;;;;32.35;15.98;;;;;;;9.48;100.00;99439.50;4987953;28;20444;-82
2024/03/31 09:53:28;;;;;;;28.35;15.07;;;;;;;9.16;100.00;99438.50;4981188;28;20426;-79
2024/03/31 09:56:02;;;;;;;31.95;15.48;;;;;;;9.27;100.00;99437.19;4984877;28;20812;-82
2024/03/31 09:58:33;;;;;;;29.17;15.57;;;;;;;9.39;100.00;99436.69;4987035;28;20496;-80
2024/03/31 10:01:02;;;;;;;30.83;15.98;;;;;;;9.31;100.00;99438.19;4981321;28;20456;-80
2024/03/31 10:03:35;;;;;;;31.83;16.77;;;;;;;9.24;100.00;99434.25;4980771;28;20445;-78
2024/03/31 10:06:03;;;;;;;28.92;15.27;;;;;;;9.12;100.00;99427.44;4962905;28;20454;-79
2024/03/31 10:08:31;;;;;;;28.67;15.43;;;;;;;9.08;100.00;99423.69;4970424;28;20885;-80
2024/03/31 10:10:59;;;;;;;27.30;15.00;;;;;;;9.24;100.00;99421.50;4971248;28;20825;-79
2024/03/31 10:13:26;;;;;;;30.73;15.10;;;;;;;9.36;100.00;99431.84;4981537;28;20432;-80
2024/03/31 10:15:56;;;;;;;44.43;25.57;;;;;;;9.30;100.00;99424.94;4988184;28;20436;-79
2024/03/31 10:18:24;;;;;;;51.33;27.65;;;;;;;9.35;100.00;99432.97;4988395;28;20805;-80
2024/03/31 10:20:52;;;;;;;34.30;18.27;;;;;;;9.25;100.00;99447.53;4965599;28;20417;-80
2024/03/31 10:23:19;;;;;;;28.85;15.02;;;;;;;9.39;100.00;99452.16;4978995;28;20837;-79
2024/03/31 10:25:47;;;;;;;27.90;16.20;;;;;;;9.30;100.00;99460.22;4973238;28;20497;-79
2024/03/31 10:28:14;;;;;;;26.45;13.98;;;;;;;9.26;100.00;99460.00;4985842;28;20432;-79
2024/03/31 10:30:42;;;;;;;29.23;15.43;;;;;;;9.26;100.00;99454.56;4987949;28;20429;-80
2024/03/31 10:33:10;;;;;;;29.13;16.40;;;;;;;9.36;100.00;99465.25;4978179;28;20428;-79
2024/03/31 10:35:39;;;;;;;26.15;14.68;;;;;;;9.28;100.00;99465.13;4970383;28;21224;-79
2024/03/31 10:38:10;;;;;;;29.00;14.40;;;;;;;9.26;100.00;99481.72;4987540;28;20848;-79
2024/03/31 10:40:38;;;;;;;26.08;14.13;;;;;;;9.45;100.00;99472.69;4982298;28;20432;-80
2024/03/31 10:43:07;;;;;;;26.90;14.60;;;;;;;9.60;100.00;99466.13;4985068;28;20486;-80
2024/03/31 10:45:34;;;;;;;30.88;14.68;;;;;;;9.70;100.00;99457.78;4962620;28;20428;-79
2024/03/31 10:48:01;;;;;;;29.00;14.85;;;;;;;9.63;100.00;99454.69;4986871;28;20463;-79
2024/03/31 10:50:30;;;;;;;29.95;15.38;;;;;;;9.66;100.00;99451.34;4968088;28;20444;-79
2024/03/31 10:52:56;;;;;;;26.65;14.88;;;;;;;9.95;100.00;99445.56;4980846;28;20424;-79
2024/03/31 10:55:24;;;;;;;29.13;15.05;;;;;;;10.03;100.00;99435.88;4982744;28;20440;-81
2024/03/31 10:57:57;;;;;;;26.52;14.07;;;;;;;10.17;100.00;99433.13;4986783;28;20801;-80
2024/03/31 11:00:25;;;;;;;26.95;14.43;;;;;;;10.11;100.00;99431.59;4974941;28;20439;-80
2024/03/31 11:02:52;;;;;;;27.38;14.85;;;;;;;10.02;100.00;99435.06;4988214;28;20825;-79
2024/03/31 11:05:21;;;;;;;25.67;13.88;;;;;;;9.92;100.00;99435.31;4987374;28;20415;-79
2024/03/31 11:07:54;;;;;;;28.45;14.80;;;;;;;9.92;100.00;99429.88;4987488;28;20432;-79
2024/03/31 11:10:22;;;;;;;28.65;14.65;;;;;;;9.92;100.00;99431.78;4965397;28;20437;-80
2024/03/31 11:12:48;;;;;;;27.95;14.35;;;;;;;10.17;100.00;99420.31;4961974;28;20432;-79
2024/03/31 11:15:17;;;;;;;27.33;14.50;;;;;;;10.35;100.00;99413.13;4970299;28;20427;-80
2024/03/31 11:17:44;;;;;;;30.02;15.57;;;;;;;10.20;100.00;99410.75;4988889;28;20431;-79